createdAt,value
2023-11-09T06:58:46.628Z,17.10
2023-11-09T07:01:16.074Z,15.50
2023-11-09T07:03:45.836Z,17.60
2023-11-09T07:06:15.136Z,20.00
2023-11-09T07:08:44.602Z,16.00
2023-11-09T07:11:13.812Z,17.10
2023-11-09T07:13:43.021Z,14.40
2023-11-09T07:16:12.487Z,14.00
2023-11-09T07:18:41.967Z,14.30
2023-11-09T07:21:12.474Z,11.70
2023-11-09T07:23:43.430Z,13.60
2023-11-09T07:26:15.351Z,11.00
2023-11-09T07:28:44.693Z,11.80
2023-11-09T07:31:14.313Z,11.30
2023-11-09T07:33:45.759Z,10.90
2023-11-09T07:36:16.460Z,12.00
2023-11-09T07:38:45.950Z,11.00
2023-11-09T07:41:16.199Z,10.00
2023-11-09T07:43:45.574Z,9.00
2023-11-09T07:46:14.953Z,8.30
2023-11-09T07:48:44.316Z,9.60
2023-11-09T07:51:14.915Z,8.00
2023-11-09T07:53:44.182Z,8.30
2023-11-09T07:56:13.484Z,8.50
2023-11-09T07:58:44.674Z,8.60
2023-11-09T08:01:15.068Z,8.20
2023-11-09T08:03:44.382Z,8.40
2023-11-09T08:06:15.732Z,7.40
2023-11-09T08:08:48.618Z,8.20
2023-11-09T08:11:18.039Z,7.00
2023-11-09T08:13:48.167Z,6.60
2023-11-09T08:16:17.534Z,6.50
2023-11-09T08:18:47.721Z,21.30
2023-11-09T08:21:17.294Z,7.00
2023-11-09T08:23:47.238Z,8.70
2023-11-09T08:26:17.946Z,8.80
2023-11-09T08:28:47.569Z,9.20
2023-11-09T08:31:16.953Z,8.90
2023-11-09T08:33:47.154Z,8.60
2023-11-09T08:36:16.462Z,8.40
2023-11-09T08:38:45.756Z,6.90
2023-11-09T08:41:17.084Z,6.00
2023-11-09T08:43:51.031Z,4.70
2023-11-09T08:46:20.519Z,5.20
2023-11-09T08:48:50.076Z,4.40
2023-11-09T08:51:20.354Z,6.80
2023-11-09T08:53:51.945Z,5.70
2023-11-09T08:56:23.115Z,5.50
2023-11-09T08:58:53.100Z,6.10
2023-11-09T09:01:50.457Z,5.40
2023-11-09T09:04:20.146Z,6.10
2023-11-09T09:06:49.538Z,5.00
2023-11-09T09:09:19.454Z,4.70
2023-11-09T09:11:49.523Z,5.00
2023-11-09T09:14:19.897Z,6.30
2023-11-09T09:16:49.163Z,5.00
2023-11-09T09:19:19.303Z,6.10
2023-11-09T09:21:50.367Z,6.00
2023-11-09T09:24:20.482Z,6.60
2023-11-09T09:26:49.888Z,6.50
2023-11-09T09:29:19.387Z,6.40
2023-11-09T09:31:49.278Z,6.00
2023-11-09T09:34:24.987Z,6.00
2023-11-09T09:36:56.630Z,5.50
2023-11-09T09:39:26.944Z,6.80
2023-11-09T09:42:00.388Z,5.60
2023-11-09T09:44:31.680Z,6.00
2023-11-09T09:47:03.109Z,5.00
2023-11-09T09:49:32.851Z,4.10
2023-11-09T09:52:03.789Z,3.30
2023-11-09T09:54:34.208Z,3.80
2023-11-09T09:57:04.696Z,2.40
2023-11-09T09:59:35.528Z,3.20
2023-11-09T10:02:10.016Z,3.40
2023-11-09T10:04:40.017Z,3.50
2023-11-09T10:07:10.364Z,2.80
2023-11-09T10:09:39.837Z,2.90
2023-11-09T10:12:10.963Z,2.20
2023-11-09T10:14:40.804Z,2.60
2023-11-09T10:17:13.302Z,2.60
2023-11-09T10:19:43.800Z,2.80
2023-11-09T10:22:14.045Z,2.80
2023-11-09T10:24:43.532Z,3.50
2023-11-09T10:27:12.871Z,2.90
2023-11-09T10:29:42.178Z,2.70
2023-11-09T10:32:23.997Z,2.40
2023-11-09T10:34:54.346Z,2.70
2023-11-09T10:37:23.713Z,2.30
2023-11-09T10:39:56.555Z,2.90
2023-11-09T10:42:27.505Z,3.20
2023-11-09T10:45:03.103Z,2.00
2023-11-09T10:47:34.561Z,2.40
2023-11-09T10:50:09.000Z,2.50
2023-11-09T10:52:38.262Z,2.80
2023-11-09T10:55:11.034Z,3.00
2023-11-09T10:57:44.668Z,3.30
2023-11-09T11:00:27.294Z,2.10
2023-11-09T11:03:08.940Z,2.90
2023-11-09T11:05:42.316Z,1.80
2023-11-09T11:08:27.905Z,1.90
2023-11-09T11:11:02.117Z,1.80
2023-11-09T11:13:33.426Z,2.80
2023-11-09T11:16:21.689Z,1.90
2023-11-09T11:19:21.466Z,2.00
2023-11-09T11:22:02.708Z,2.10
2023-11-09T11:24:56.801Z,1.80
2023-11-09T11:27:36.198Z,2.10
2023-11-09T11:30:26.291Z,2.10
2023-11-09T11:33:00.895Z,2.10
2023-11-09T11:35:41.008Z,1.60
2023-11-09T11:38:16.920Z,1.30
2023-11-09T11:40:48.371Z,1.70
2023-11-09T11:43:18.326Z,1.80
2023-11-09T11:45:50.110Z,2.10
2023-11-09T11:48:26.682Z,1.50
2023-11-09T11:50:56.965Z,2.40
2023-11-09T11:53:32.647Z,1.60
2023-11-09T11:56:13.451Z,1.50
2023-11-09T11:58:54.190Z,2.20
2023-11-09T12:01:33.643Z,1.90
2023-11-09T12:04:08.158Z,1.80
2023-11-09T12:06:39.461Z,2.00
2023-11-09T12:09:12.959Z,2.20
2023-11-09T12:11:51.196Z,1.60
2023-11-09T12:14:21.680Z,1.60
2023-11-09T12:16:52.453Z,2.20
2023-11-09T12:19:22.136Z,1.90
2023-11-09T12:21:51.357Z,2.50
2023-11-09T12:24:24.622Z,2.50
2023-11-09T12:27:11.094Z,1.80
2023-11-09T12:29:43.656Z,1.80
2023-11-09T12:32:14.467Z,1.80
2023-11-09T12:34:44.578Z,1.60
2023-11-09T12:37:16.727Z,1.70
2023-11-09T12:39:49.681Z,2.50
2023-11-09T12:42:26.551Z,2.70
2023-11-09T12:44:57.982Z,1.80
2023-11-09T12:47:31.866Z,2.00
2023-11-09T12:50:04.892Z,2.50
2023-11-09T12:52:38.738Z,2.20
2023-11-09T12:55:09.739Z,1.90
2023-11-09T12:57:43.935Z,1.90
2023-11-09T13:00:31.910Z,2.60
2023-11-09T13:03:04.910Z,2.50
2023-11-09T13:05:38.900Z,1.60
2023-11-09T13:08:10.934Z,3.50
2023-11-09T13:10:45.474Z,3.40
2023-11-09T13:13:23.309Z,2.60
2023-11-09T13:15:53.126Z,2.40
2023-11-09T13:18:29.516Z,2.30
2023-11-09T13:21:00.958Z,1.70
2023-11-09T13:23:34.365Z,2.10
2023-11-09T13:26:07.047Z,1.60
2023-11-09T13:28:36.650Z,1.60
2023-11-09T13:31:08.562Z,2.70
2023-11-09T13:33:38.881Z,3.10
2023-11-09T13:36:11.929Z,1.70
2023-11-09T13:38:58.343Z,2.00
2023-11-09T13:41:43.226Z,2.10
2023-11-09T13:44:13.796Z,1.60
2023-11-09T13:46:45.047Z,1.90
2023-11-09T13:49:17.332Z,2.20
2023-11-09T13:52:03.959Z,1.60
2023-11-09T13:54:37.905Z,1.70
2023-11-09T13:57:15.149Z,1.90
2023-11-09T13:59:56.608Z,1.70
2023-11-09T14:02:32.093Z,1.50
2023-11-09T14:05:11.299Z,1.20
2023-11-09T14:07:44.534Z,1.20
2023-11-09T14:10:16.460Z,2.20
2023-11-09T14:12:53.760Z,2.20
2023-11-09T14:15:29.316Z,1.50
2023-11-09T14:18:54.011Z,2.60
2023-11-09T14:21:26.147Z,2.50
2023-11-09T14:23:56.376Z,2.30
2023-11-09T14:26:29.048Z,2.90
2023-11-09T14:29:09.814Z,6.00
2023-11-09T14:31:40.064Z,2.70
2023-11-09T14:34:15.194Z,2.00
2023-11-09T14:36:49.731Z,2.30
2023-11-09T14:39:41.383Z,2.90
2023-11-09T14:42:11.347Z,2.50
2023-11-09T14:44:42.579Z,3.20
2023-11-09T14:47:12.502Z,2.70
2023-11-09T14:49:46.873Z,2.90
2023-11-09T14:52:22.350Z,4.00
2023-11-09T14:54:51.875Z,4.60
2023-11-09T14:57:21.277Z,5.10
2023-11-09T14:59:50.662Z,22.80
2023-11-09T15:02:22.013Z,26.90
2023-11-09T15:04:57.204Z,25.70
2023-11-09T15:07:26.905Z,26.30
2023-11-09T15:10:01.475Z,43.60
2023-11-09T15:12:35.067Z,73.50
2023-11-09T15:15:07.826Z,58.00
2023-11-09T15:17:38.671Z,48.00
2023-11-09T15:20:20.214Z,43.00
2023-11-09T15:22:57.829Z,24.90
2023-11-09T15:25:32.299Z,17.40
2023-11-09T15:28:05.354Z,12.90
2023-11-09T15:30:35.646Z,11.20
2023-11-09T15:33:06.670Z,11.90
2023-11-09T15:35:36.182Z,13.90
2023-11-09T15:38:05.772Z,15.50
2023-11-09T15:41:11.069Z,19.10
2023-11-09T15:43:24.586Z,20.70
2023-11-09T15:45:56.739Z,16.90
2023-11-09T15:48:28.337Z,15.00
2023-11-09T15:50:59.028Z,18.70
2023-11-09T15:53:28.939Z,18.50
2023-11-09T15:55:58.248Z,18.20
2023-11-09T15:58:27.604Z,21.90
2023-11-09T16:00:57.597Z,22.80
2023-11-09T16:03:27.115Z,25.10
2023-11-09T16:05:56.604Z,27.50
2023-11-09T16:08:26.225Z,26.20
2023-11-09T16:10:56.016Z,23.80
2023-11-09T16:13:26.069Z,23.50
2023-11-09T16:15:55.767Z,26.00
2023-11-09T16:18:26.881Z,27.70
2023-11-09T16:20:56.164Z,25.70
2023-11-09T16:23:26.385Z,28.00
2023-11-09T16:25:55.881Z,38.90
2023-11-09T16:28:25.496Z,41.40
2023-11-09T16:31:03.890Z,48.90
2023-11-09T16:33:34.479Z,53.80
2023-11-09T16:36:04.053Z,55.00
2023-11-09T16:38:33.964Z,56.10
2023-11-09T16:41:05.998Z,64.10
2023-11-09T16:43:36.159Z,65.00
2023-11-09T16:46:07.290Z,61.10
2023-11-09T16:48:40.227Z,62.20
2023-11-09T16:51:11.816Z,69.10
2023-11-09T16:53:41.446Z,60.90
2023-11-09T16:56:10.976Z,60.30
2023-11-09T16:58:40.615Z,59.80
2023-11-09T17:01:10.024Z,62.30
2023-11-09T17:03:39.371Z,66.40
2023-11-09T17:06:09.021Z,71.90
2023-11-09T17:08:40.153Z,68.60
2023-11-09T17:11:09.681Z,68.30
2023-11-09T17:13:39.468Z,63.80
2023-11-09T17:16:10.225Z,66.10
2023-11-09T17:18:39.851Z,73.10
2023-11-09T17:21:09.290Z,75.90
2023-11-09T17:23:38.572Z,79.80
2023-11-09T17:26:07.998Z,78.30
2023-11-09T17:28:37.413Z,75.70
2023-11-09T17:31:06.794Z,66.10
2023-11-09T17:33:37.595Z,69.60
2023-11-09T17:36:08.699Z,77.10
2023-11-09T17:38:38.734Z,76.50
2023-11-09T17:41:08.308Z,86.80
2023-11-09T17:43:38.548Z,98.90
2023-11-09T17:46:08.062Z,94.40
2023-11-09T17:48:37.529Z,100.40
2023-11-09T17:51:07.168Z,96.40
2023-11-09T17:53:36.536Z,86.90
2023-11-09T17:56:06.379Z,81.80
2023-11-09T17:58:37.024Z,79.20
2023-11-09T18:01:07.748Z,78.80
2023-11-09T18:03:37.749Z,81.20
2023-11-09T18:06:11.883Z,93.70
2023-11-09T18:08:41.667Z,89.80
2023-11-09T18:11:10.966Z,89.80
2023-11-09T18:13:40.533Z,93.20
2023-11-09T18:16:11.437Z,92.90
2023-11-09T18:18:41.118Z,94.00
2023-11-09T18:21:12.285Z,102.00
2023-11-09T18:23:42.005Z,94.70
2023-11-09T18:26:14.963Z,92.30
2023-11-09T18:28:45.952Z,95.50
2023-11-09T18:31:20.196Z,96.40
2023-11-09T18:33:50.662Z,96.60
2023-11-09T18:36:20.370Z,92.30
2023-11-09T18:38:50.362Z,94.70
2023-11-09T18:41:21.962Z,93.80
2023-11-09T18:43:52.864Z,94.20
2023-11-09T18:46:22.890Z,97.40
2023-11-09T18:48:52.691Z,107.50
2023-11-09T18:51:22.359Z,115.20
2023-11-09T18:53:51.810Z,103.30
2023-11-09T18:56:21.211Z,102.80
2023-11-09T18:58:51.230Z,101.80
2023-11-09T19:01:20.955Z,97.30
2023-11-09T19:06:26.721Z,99.70
2023-11-09T19:08:59.362Z,102.00
2023-11-09T19:11:30.903Z,101.90
2023-11-09T19:14:00.173Z,104.70
2023-11-09T19:16:29.629Z,96.90
2023-11-09T19:18:59.154Z,108.40
2023-11-09T19:24:03.010Z,106.80
2023-11-09T19:26:34.268Z,103.00
2023-11-09T19:29:04.694Z,101.50
2023-11-09T19:31:37.078Z,98.80
2023-11-09T19:34:09.336Z,105.90
2023-11-09T19:36:42.390Z,105.90
2023-11-09T19:39:13.989Z,110.10
2023-11-09T19:41:46.804Z,97.80
2023-11-09T19:44:16.340Z,100.50
2023-11-09T19:46:46.072Z,96.20
2023-11-09T19:49:17.745Z,93.90
2023-11-09T19:51:47.585Z,91.00
2023-11-09T19:54:17.688Z,91.90
2023-11-09T19:56:47.718Z,86.20
2023-11-09T19:59:16.925Z,89.40
2023-11-09T20:01:46.487Z,84.60
2023-11-09T20:04:17.923Z,83.60
2023-11-09T20:06:52.349Z,86.70
2023-11-09T20:09:23.235Z,85.20
2023-11-09T20:11:52.677Z,88.60
2023-11-09T20:14:21.978Z,81.30
2023-11-09T20:16:52.397Z,83.40
2023-11-09T20:19:21.695Z,81.90
2023-11-09T20:21:54.632Z,86.80
2023-11-09T20:24:24.120Z,98.80
2023-11-09T20:26:58.387Z,90.80
2023-11-09T20:29:28.333Z,92.80
2023-11-09T20:32:01.786Z,109.30
2023-11-09T20:34:32.160Z,98.50
2023-11-09T20:37:01.598Z,102.60
2023-11-09T20:39:32.233Z,94.40
2023-11-09T20:42:02.885Z,85.40
2023-11-09T20:44:32.174Z,87.60
2023-11-09T20:47:03.875Z,89.10
2023-11-09T20:49:33.890Z,85.10
2023-11-09T20:52:04.306Z,77.00
2023-11-09T20:54:36.212Z,75.60
2023-11-09T20:57:06.232Z,80.50
2023-11-09T20:59:35.594Z,81.60
2023-11-09T21:02:05.382Z,91.00
2023-11-09T21:04:35.933Z,91.10
2023-11-09T21:07:08.335Z,80.90
2023-11-09T21:09:38.135Z,80.00
2023-11-09T21:12:09.508Z,82.00
2023-11-09T21:14:38.984Z,85.20
2023-11-09T21:17:10.332Z,95.30
2023-11-09T21:19:39.540Z,101.00
2023-11-09T21:22:14.513Z,100.90
2023-11-09T21:24:44.106Z,98.40
2023-11-09T21:27:14.837Z,93.90
2023-11-09T21:29:44.613Z,86.20
2023-11-09T21:32:13.808Z,81.90
2023-11-09T21:34:43.054Z,83.80
2023-11-09T21:37:15.184Z,91.10
2023-11-09T21:39:45.028Z,80.30
2023-11-09T21:42:14.504Z,73.70
2023-11-09T21:44:46.024Z,66.00
2023-11-09T21:47:17.893Z,71.20
2023-11-09T21:49:48.739Z,56.60
2023-11-09T21:52:17.972Z,61.60
2023-11-09T21:54:47.119Z,59.70
2023-11-09T21:57:16.565Z,58.10
2023-11-09T21:59:46.048Z,56.40
2023-11-09T22:02:15.351Z,53.90
2023-11-09T22:04:44.835Z,52.00
2023-11-09T22:07:14.158Z,53.60
2023-11-09T22:09:43.670Z,51.10
2023-11-09T22:12:13.156Z,52.20
2023-11-09T22:14:42.616Z,50.20
2023-11-09T22:17:11.846Z,44.90
2023-11-09T22:19:41.168Z,39.10
2023-11-09T22:22:10.572Z,38.30
2023-11-09T22:24:39.758Z,37.10
2023-11-09T22:27:09.119Z,42.70
2023-11-09T22:29:38.585Z,54.80
2023-11-09T22:32:07.896Z,55.80
2023-11-09T22:34:37.136Z,53.10
2023-11-09T22:37:07.299Z,51.20
2023-11-09T22:39:38.449Z,48.80
2023-11-09T22:42:10.947Z,43.60
2023-11-09T22:44:40.233Z,41.20
2023-11-09T22:47:09.624Z,39.20
2023-11-09T22:49:39.054Z,36.20
2023-11-09T22:52:08.507Z,35.20
2023-11-09T22:54:37.977Z,31.00
2023-11-09T22:57:07.828Z,30.20
2023-11-09T22:59:37.360Z,29.70
2023-11-09T23:02:07.165Z,29.10
2023-11-09T23:04:36.568Z,30.70
2023-11-09T23:07:05.789Z,28.40
2023-11-09T23:09:35.196Z,29.90
2023-11-09T23:12:06.191Z,30.50
2023-11-09T23:14:35.718Z,27.60
2023-11-09T23:17:05.050Z,26.30
2023-11-09T23:19:34.679Z,28.40
2023-11-09T23:22:04.498Z,25.70
2023-11-09T23:24:33.846Z,30.10
2023-11-09T23:27:04.852Z,28.30
2023-11-09T23:29:35.118Z,28.50
2023-11-09T23:32:04.612Z,27.70
2023-11-09T23:34:33.952Z,28.50
2023-11-09T23:37:03.226Z,26.30
2023-11-09T23:39:32.436Z,27.50
2023-11-09T23:42:01.654Z,26.70
2023-11-09T23:44:31.360Z,26.40
2023-11-09T23:47:00.992Z,28.30
2023-11-09T23:49:30.076Z,29.20
2023-11-09T23:51:59.533Z,27.50
2023-11-09T23:54:29.265Z,29.20
2023-11-09T23:56:58.477Z,29.60
2023-11-09T23:59:27.998Z,29.00
